Time;durP1;ratioP1;P1;durP2;ratioP2;P2;SDS_P1;SDS_P2;PMS_P1;PMS_P2;Temp;Humidity;BMP_temperature;BMP_pressure;BME280_temperature;BME280_humidity;BME280_pressure;Samples;Min_cycle;Max_cycle;Signal;HPM_P1;HPM_P2
2023/03/29 00:01:29;;;;;;;3.30;1.42;;;5.80;99.90;;;;;;4767965;30;21029;-85
2023/03/29 00:03:56;;;;;;;2.83;1.55;;;5.90;99.90;;;;;;4752702;30;20086;-84
2023/03/29 00:06:21;;;;;;;6.55;2.35;;;6.70;99.90;;;;;;4752186;30;20511;-85
2023/03/29 00:08:53;;;;;;;3.53;1.45;;;5.80;99.90;;;;;;4768597;30;20039;-85
2023/03/29 00:11:21;;;;;;;3.83;1.58;;;6.30;99.90;;;;;;4768610;30;20498;-85
2023/03/29 00:13:47;;;;;;;3.22;1.52;;;5.80;99.90;;;;;;4770297;30;20040;-85
2023/03/29 00:16:13;;;;;;;7.50;1.70;;;5.90;99.90;;;;;;4769293;30;20584;-87
2023/03/29 00:18:39;;;;;;;7.22;2.05;;;5.80;99.90;;;;;;4769378;30;20039;-84
2023/03/29 00:21:05;;;;;;;2.45;1.75;;;5.80;99.90;;;;;;4768907;30;20036;-85
2023/03/29 00:23:31;;;;;;;4.60;1.60;;;6.30;99.90;;;;;;4754104;30;20093;-85
2023/03/29 00:25:57;;;;;;;4.47;2.00;;;5.80;99.90;;;;;;4768295;30;20063;-85
2023/03/29 00:28:24;;;;;;;2.58;1.45;;;5.80;99.90;;;;;;4767527;30;20051;-84
2023/03/29 00:30:50;;;;;;;3.13;1.80;;;5.90;99.90;;;;;;4768127;30;20096;-87
2023/03/29 00:33:19;;;;;;;5.38;1.77;;;5.80;99.90;;;;;;4753341;30;20048;-86
2023/03/29 00:35:47;;;;;;;4.95;1.67;;;5.70;99.90;;;;;;4751457;30;20048;-85
2023/03/29 00:38:16;;;;;;;7.03;1.48;;;5.80;99.90;;;;;;4774586;30;20043;-85
2023/03/29 00:40:45;;;;;;;3.53;2.03;;;5.70;99.90;;;;;;4754195;30;20039;-85
2023/03/29 00:43:13;;;;;;;4.50;1.85;;;5.70;99.90;;;;;;4753162;30;20127;-85
2023/03/29 00:45:39;;;;;;;6.25;1.63;;;5.70;99.90;;;;;;4753459;30;20051;-85
2023/03/29 00:48:09;;;;;;;3.65;1.73;;;6.80;99.90;;;;;;4768962;30;20051;-85
2023/03/29 00:50:42;;;;;;;5.38;2.25;;;6.50;99.90;;;;;;4751831;30;20526;-85
2023/03/29 00:53:22;;;;;;;4.78;1.98;;;5.70;99.90;;;;;;4766964;30;20543;-85
2023/03/29 00:56:12;;;;;;;4.60;1.92;;;5.70;99.90;;;;;;4752863;30;20044;-85
2023/03/29 00:58:54;;;;;;;3.65;2.20;;;5.70;99.90;;;;;;4737411;30;20059;-84
2023/03/29 01:01:32;;;;;;;4.47;2.42;;;5.70;99.90;;;;;;4752581;30;20048;-85
2023/03/29 01:04:17;;;;;;;6.35;2.53;;;5.70;99.90;;;;;;4767531;30;20044;-84
2023/03/29 01:06:49;;;;;;;3.78;2.30;;;5.70;99.90;;;;;;4749851;30;20551;-85
2023/03/29 01:09:17;;;;;;;6.88;2.80;;;5.80;99.90;;;;;;4739058;30;20039;-84
2023/03/29 01:11:48;;;;;;;5.40;2.60;;;5.70;99.90;;;;;;4768440;30;20546;-86
2023/03/29 01:14:24;;;;;;;3.85;2.60;;;5.70;99.90;;;;;;4752829;30;20036;-84
2023/03/29 01:16:49;;;;;;;5.40;2.70;;;5.70;99.90;;;;;;4751723;30;20056;-85
2023/03/29 01:19:20;;;;;;;6.20;2.20;;;5.70;99.90;;;;;;4753511;30;20134;-85
2023/03/29 01:21:53;;;;;;;4.40;2.90;;;5.60;99.90;;;;;;4753145;30;20047;-85
2023/03/29 01:24:40;;;;;;;3.78;2.75;;;5.70;99.90;;;;;;4753210;30;20083;-85
2023/03/29 01:27:44;;;;;;;6.63;2.90;;;5.60;99.90;;;;;;4751469;30;20083;-85
2023/03/29 01:30:19;;;;;;;5.57;3.53;;;5.60;99.90;;;;;;4748407;30;20048;-85
2023/03/29 01:32:54;;;;;;;4.85;3.03;;;6.40;99.90;;;;;;4739136;30;20456;-85
2023/03/29 01:35:22;;;;;;;5.73;2.90;;;5.70;99.90;;;;;;4752641;30;20047;-85
2023/03/29 01:37:57;;;;;;;4.18;2.95;;;5.60;99.90;;;;;;4752675;30;20496;-86
2023/03/29 01:40:26;;;;;;;9.23;3.30;;;5.60;99.90;;;;;;4749019;30;20512;-84
2023/03/29 01:43:33;;;;;;;6.32;2.83;;;6.00;99.90;;;;;;4752924;30;20066;-84
2023/03/29 01:46:25;;;;;;;5.10;3.53;;;5.60;99.90;;;;;;4732155;30;20054;-85
2023/03/29 01:49:20;;;;;;;11.93;3.42;;;6.20;99.90;;;;;;4759820;30;20051;-85
2023/03/29 01:51:55;;;;;;;5.65;3.50;;;5.70;99.90;;;;;;4746845;30;20059;-82
2023/03/29 01:54:35;;;;;;;4.93;2.95;;;5.60;99.90;;;;;;4755126;30;20043;-83
2023/03/29 01:57:03;;;;;;;4.47;3.15;;;5.60;99.90;;;;;;4763036;30;20055;-82
2023/03/29 01:59:32;;;;;;;7.20;4.05;;;5.60;99.90;;;;;;4765417;30;20136;-82
2023/03/29 02:02:01;;;;;;;7.47;3.70;;;5.70;99.90;;;;;;4749703;30;20055;-82
2023/03/29 02:04:33;;;;;;;7.97;3.38;;;5.60;99.90;;;;;;4767136;30;20052;-82
2023/03/29 02:07:00;;;;;;;4.63;2.80;;;5.60;99.90;;;;;;4751723;30;20819;-83
2023/03/29 02:09:27;;;;;;;4.68;2.75;;;6.30;99.90;;;;;;4768983;30;20698;-83
2023/03/29 02:11:57;;;;;;;4.60;2.90;;;5.60;99.90;;;;;;4752142;30;20048;-82
2023/03/29 02:14:24;;;;;;;5.43;2.97;;;5.70;99.90;;;;;;4766816;30;20032;-82
2023/03/29 02:16:49;;;;;;;6.18;2.78;;;5.60;99.90;;;;;;4766396;30;20066;-82
2023/03/29 02:19:17;;;;;;;4.97;3.20;;;5.70;99.90;;;;;;4751954;30;20056;-82
2023/03/29 02:22:02;;;;;;;4.88;3.15;;;5.70;99.90;;;;;;4752237;30;20070;-83
2023/03/29 02:24:31;;;;;;;4.60;2.55;;;5.70;99.90;;;;;;4765598;30;20039;-82
2023/03/29 02:26:57;;;;;;;4.60;3.13;;;5.70;99.90;;;;;;4749571;30;20405;-83
2023/03/29 02:29:24;;;;;;;5.32;3.20;;;5.90;99.90;;;;;;4766785;30;20127;-82
2023/03/29 02:31:57;;;;;;;5.18;3.47;;;5.70;99.90;;;;;;4765778;30;20134;-83
2023/03/29 02:34:23;;;;;;;8.27;3.42;;;5.60;99.90;;;;;;4764643;30;20040;-82
2023/03/29 02:37:00;;;;;;;5.57;3.55;;;5.70;99.90;;;;;;4764745;30;20052;-82
2023/03/29 02:39:30;;;;;;;5.47;2.95;;;5.60;99.90;;;;;;4768339;30;20047;-81
2023/03/29 02:41:57;;;;;;;6.38;3.60;;;5.70;99.90;;;;;;4739034;30;20055;-82
2023/03/29 02:44:27;;;;;;;6.90;3.42;;;5.70;99.90;;;;;;4766627;30;20054;-83
2023/03/29 02:46:58;;;;;;;6.82;4.03;;;5.70;99.90;;;;;;4766473;30;20748;-82
2023/03/29 02:49:24;;;;;;;6.63;3.35;;;5.70;99.90;;;;;;4769240;30;20046;-82
2023/03/29 02:51:52;;;;;;;8.95;3.60;;;5.70;99.90;;;;;;4752415;30;20044;-82
2023/03/29 02:54:22;;;;;;;7.82;3.45;;;5.90;99.90;;;;;;4749870;30;20043;-82
2023/03/29 02:56:54;;;;;;;5.38;3.55;;;5.70;99.90;;;;;;4751251;30;20047;-83
2023/03/29 02:59:21;;;;;;;6.72;4.00;;;5.70;99.90;;;;;;4755810;30;20047;-82
2023/03/29 03:01:47;;;;;;;6.30;3.83;;;5.70;99.90;;;;;;4767211;30;20046;-82
2023/03/29 03:04:13;;;;;;;5.20;3.50;;;5.70;99.90;;;;;;4767404;30;20035;-83
2023/03/29 03:06:39;;;;;;;3.67;3.38;;;5.70;99.90;;;;;;4752154;30;20043;-83
2023/03/29 03:09:05;;;;;;;6.70;4.30;;;5.70;99.90;;;;;;4751118;30;20099;-83
2023/03/29 03:11:32;;;;;;;7.65;4.53;;;5.70;99.90;;;;;;4767597;30;20496;-82
2023/03/29 03:13:58;;;;;;;6.70;4.10;;;5.70;99.90;;;;;;4751169;30;20047;-82
2023/03/29 03:16:24;;;;;;;6.45;4.93;;;5.70;99.90;;;;;;4762741;30;20048;-83
2023/03/29 03:18:50;;;;;;;4.47;4.07;;;5.80;99.90;;;;;;4766141;30;20090;-83
2023/03/29 03:21:17;;;;;;;8.85;4.40;;;5.80;99.90;;;;;;4755622;30;20044;-83
2023/03/29 03:23:44;;;;;;;5.43;4.00;;;5.80;99.90;;;;;;4769099;30;20071;-83
2023/03/29 03:26:10;;;;;;;7.45;5.65;;;5.40;99.90;;;;;;4763597;30;20062;-83
2023/03/29 03:28:36;;;;;;;5.50;4.40;;;5.80;99.90;;;;;;4750684;30;20126;-82
2023/03/29 03:31:01;;;;;;;7.35;5.03;;;6.60;99.90;;;;;;4751020;30;20177;-83
2023/03/29 03:33:28;;;;;;;8.38;4.60;;;6.30;99.90;;;;;;4767886;30;20039;-82
2023/03/29 03:36:01;;;;;;;9.48;4.88;;;5.70;99.90;;;;;;4768513;30;20051;-82
2023/03/29 03:38:28;;;;;;;5.88;4.40;;;5.80;99.90;;;;;;4736436;30;20490;-82
2023/03/29 03:40:57;;;;;;;6.70;5.32;;;5.80;99.90;;;;;;4765203;30;20111;-82
2023/03/29 03:43:23;;;;;;;8.13;6.05;;;5.80;99.90;;;;;;4750351;30;20048;-83
2023/03/29 03:45:49;;;;;;;7.80;5.57;;;5.80;99.90;;;;;;4750621;30;20081;-82
2023/03/29 03:48:16;;;;;;;11.30;6.00;;;5.80;99.90;;;;;;4751061;30;20036;-83
2023/03/29 03:50:50;;;;;;;8.07;5.50;;;5.80;99.90;;;;;;4759122;30;20047;-83
2023/03/29 03:53:15;;;;;;;8.02;5.30;;;5.80;99.90;;;;;;4770189;30;21764;-83
2023/03/29 03:55:41;;;;;;;6.72;5.18;;;5.80;99.90;;;;;;4754176;30;20036;-82
2023/03/29 03:58:07;;;;;;;9.10;5.15;;;5.80;99.90;;;;;;4753175;30;20055;-82
2023/03/29 04:00:33;;;;;;;7.28;5.20;;;5.80;99.90;;;;;;4768113;30;20040;-83
2023/03/29 04:03:00;;;;;;;7.40;5.32;;;5.80;99.90;;;;;;4753766;30;20050;-82
2023/03/29 04:05:26;;;;;;;11.23;5.60;;;5.90;99.90;;;;;;4752999;30;20047;-83
2023/03/29 04:07:53;;;;;;;10.00;4.80;;;5.90;99.90;;;;;;4769248;30;20051;-82
2023/03/29 04:10:19;;;;;;;6.28;4.38;;;5.80;99.90;;;;;;4752646;30;20052;-82
2023/03/29 04:12:47;;;;;;;7.63;5.15;;;5.90;99.90;;;;;;4767622;30;20630;-82
2023/03/29 04:15:13;;;;;;;9.43;4.97;;;5.20;99.90;;;;;;4768392;30;20040;-81
2023/03/29 04:17:39;;;;;;;8.55;5.43;;;6.00;99.90;;;;;;4765207;30;20050;-82
2023/03/29 04:20:11;;;;;;;6.55;5.10;;;5.90;99.90;;;;;;4768329;30;20055;-83
2023/03/29 04:22:37;;;;;;;8.98;5.70;;;5.90;99.90;;;;;;4753238;30;20051;-82
2023/03/29 04:25:05;;;;;;;7.65;5.80;;;5.90;99.90;;;;;;4753105;30;20090;-83
2023/03/29 04:28:03;;;;;;;8.02;5.80;;;5.90;99.90;;;;;;4763155;30;20499;-84
2023/03/29 04:30:51;;;;;;;11.05;6.32;;;5.90;99.90;;;;;;4716849;30;20090;-84
2023/03/29 04:33:17;;;;;;;8.25;5.65;;;6.60;99.90;;;;;;4762627;30;20044;-81
2023/03/29 04:35:42;;;;;;;9.60;5.35;;;5.90;99.90;;;;;;4767091;30;20050;-81
2023/03/29 04:38:11;;;;;;;8.73;5.40;;;5.90;99.90;;;;;;4750787;30;20048;-79
2023/03/29 04:40:39;;;;;;;7.30;5.50;;;6.00;99.90;;;;;;4749934;30;20044;-82
2023/03/29 04:43:05;;;;;;;14.57;7.07;;;6.90;99.90;;;;;;4752256;30;20051;-83
2023/03/29 04:45:30;;;;;;;7.15;5.55;;;5.90;99.90;;;;;;4773206;30;20047;-84
2023/03/29 04:47:58;;;;;;;11.05;5.95;;;5.90;99.90;;;;;;4753579;30;20063;-84
2023/03/29 04:50:24;;;;;;;11.35;6.47;;;6.30;99.90;;;;;;4756971;30;20047;-81
2023/03/29 04:52:50;;;;;;;10.40;5.78;;;5.90;99.90;;;;;;4771764;30;20048;-81
2023/03/29 04:55:15;;;;;;;7.35;5.18;;;6.00;99.90;;;;;;4754342;30;20046;-82
2023/03/29 04:57:43;;;;;;;6.55;5.18;;;6.50;99.90;;;;;;4766501;30;20192;-82
2023/03/29 05:00:13;;;;;;;9.15;5.93;;;5.90;99.90;;;;;;4739791;30;20039;-81
2023/03/29 05:02:43;;;;;;;10.43;5.57;;;6.00;99.90;;;;;;4751909;30;20047;-80
2023/03/29 05:05:09;;;;;;;8.45;6.22;;;6.10;99.90;;;;;;4750977;30;20407;-82
2023/03/29 05:07:35;;;;;;;7.30;5.63;;;6.00;99.90;;;;;;4751306;30;20044;-82
2023/03/29 05:10:01;;;;;;;6.90;5.07;;;6.90;99.90;;;;;;4750148;30;20055;-81
2023/03/29 05:12:27;;;;;;;7.80;5.82;;;6.00;99.90;;;;;;4767150;30;20048;-82
2023/03/29 05:14:53;;;;;;;12.02;5.78;;;6.00;99.90;;;;;;4750673;30;20416;-81
2023/03/29 05:17:20;;;;;;;11.93;5.70;;;6.00;99.90;;;;;;4749184;30;20753;-83
2023/03/29 05:19:46;;;;;;;9.18;5.70;;;6.00;99.90;;;;;;4747405;30;20056;-81
2023/03/29 05:22:13;;;;;;;9.65;5.97;;;6.10;99.90;;;;;;4765502;30;20051;-82
2023/03/29 05:24:38;;;;;;;11.38;6.32;;;6.40;99.90;;;;;;4749577;30;20062;-83
2023/03/29 05:27:04;;;;;;;8.00;5.75;;;6.20;99.90;;;;;;4762280;30;20502;-82
2023/03/29 05:29:31;;;;;;;8.07;5.78;;;5.40;99.90;;;;;;4750717;30;20196;-81
2023/03/29 05:31:58;;;;;;;12.32;6.72;;;6.10;99.90;;;;;;4766750;30;20052;-81
2023/03/29 05:34:25;;;;;;;9.23;6.30;;;6.00;99.90;;;;;;4767929;30;20407;-81
2023/03/29 05:36:55;;;;;;;11.63;6.90;;;6.00;99.90;;;;;;4749687;30;20066;-82
2023/03/29 05:39:22;;;;;;;8.85;6.63;;;6.20;99.90;;;;;;4752385;30;20040;-82
2023/03/29 05:41:47;;;;;;;8.57;6.82;;;6.00;99.90;;;;;;4764094;30;20048;-82
2023/03/29 05:44:13;;;;;;;6.60;6.00;;;6.00;99.90;;;;;;4750121;30;20058;-82
2023/03/29 05:46:38;;;;;;;12.25;7.28;;;6.00;99.90;;;;;;4750503;30;20054;-81
2023/03/29 05:49:05;;;;;;;10.93;7.00;;;5.90;99.90;;;;;;4749545;30;20128;-83
2023/03/29 05:51:32;;;;;;;10.68;7.68;;;6.00;99.90;;;;;;4763858;30;20039;-82
2023/03/29 05:54:00;;;;;;;8.93;7.22;;;6.00;99.90;;;;;;4764086;30;20546;-83
2023/03/29 05:56:26;;;;;;;11.38;7.25;;;7.40;99.90;;;;;;4749473;30;20079;-82
2023/03/29 05:58:58;;;;;;;10.07;6.57;;;6.00;99.90;;;;;;4751975;30;20068;-84
2023/03/29 06:01:24;;;;;;;10.00;7.07;;;5.90;99.90;;;;;;4767033;30;20094;-81
2023/03/29 06:03:51;;;;;;;9.00;7.10;;;6.00;99.90;;;;;;4751582;30;20407;-83
2023/03/29 06:06:16;;;;;;;8.90;7.30;;;6.60;99.90;;;;;;4763823;30;20070;-84
2023/03/29 06:08:43;;;;;;;9.55;7.63;;;6.00;99.90;;;;;;4735831;30;20495;-84
2023/03/29 06:11:10;;;;;;;11.05;7.75;;;6.80;99.90;;;;;;4769109;29;20388;-84
2023/03/29 06:13:37;;;;;;;10.32;7.03;;;6.20;99.90;;;;;;4750394;30;20075;-84
2023/03/29 06:16:07;;;;;;;10.23;7.47;;;6.20;99.90;;;;;;4751021;30;20047;-84
2023/03/29 06:18:33;;;;;;;12.48;8.32;;;6.10;99.90;;;;;;4750432;30;20043;-84
2023/03/29 06:21:01;;;;;;;8.40;7.15;;;6.10;99.90;;;;;;4753596;30;20122;-85
2023/03/29 06:23:36;;;;;;;10.55;7.43;;;6.90;99.90;;;;;;4765736;30;20115;-84
2023/03/29 06:26:02;;;;;;;15.48;8.13;;;6.20;99.90;;;;;;4749097;30;20070;-84
2023/03/29 06:28:28;;;;;;;9.63;7.65;;;6.10;99.90;;;;;;4766279;30;20039;-84
2023/03/29 06:30:55;;;;;;;12.80;7.93;;;6.20;99.90;;;;;;4766322;30;20083;-85
2023/03/29 06:33:22;;;;;;;10.13;7.93;;;6.20;99.90;;;;;;4739832;30;20126;-85
2023/03/29 06:35:54;;;;;;;9.45;7.72;;;5.80;99.90;;;;;;4752590;30;20055;-85
2023/03/29 06:38:20;;;;;;;12.02;7.03;;;6.20;99.90;;;;;;4749885;30;20040;-84
2023/03/29 06:40:47;;;;;;;9.07;7.25;;;6.30;99.90;;;;;;4765697;30;20052;-84
2023/03/29 06:43:13;;;;;;;9.60;7.35;;;6.20;99.90;;;;;;4765824;30;20075;-85
2023/03/29 06:45:39;;;;;;;8.60;7.03;;;6.40;99.90;;;;;;4736778;30;20047;-85
2023/03/29 06:48:09;;;;;;;10.25;7.50;;;6.50;99.90;;;;;;4749186;30;20352;-84
2023/03/29 06:50:36;;;;;;;11.23;7.78;;;6.50;99.90;;;;;;4749054;30;20048;-85
2023/03/29 06:53:04;;;;;;;11.48;7.28;;;6.60;99.90;;;;;;4752045;30;20377;-84
2023/03/29 06:55:30;;;;;;;13.07;7.95;;;7.30;99.90;;;;;;4746576;30;20055;-85
2023/03/29 06:57:56;;;;;;;10.48;7.38;;;6.70;99.90;;;;;;4764492;30;20080;-84
2023/03/29 07:00:28;;;;;;;8.43;6.88;;;6.70;99.90;;;;;;4750450;30;20043;-85
2023/03/29 07:02:57;;;;;;;7.85;7.03;;;6.70;99.90;;;;;;4750330;30;20070;-84
2023/03/29 07:05:26;;;;;;;8.95;7.10;;;7.00;99.90;;;;;;4737480;30;20044;-85
2023/03/29 07:07:53;;;;;;;9.82;6.78;;;7.60;99.90;;;;;;4763971;30;20133;-84
2023/03/29 07:10:21;;;;;;;8.63;6.28;;;6.60;99.90;;;;;;4763148;30;20062;-85
2023/03/29 07:12:50;;;;;;;19.80;7.75;;;6.50;99.90;;;;;;4748726;30;20048;-85
2023/03/29 07:15:17;;;;;;;7.60;6.22;;;6.50;99.90;;;;;;4749992;30;20044;-85
2023/03/29 07:17:43;;;;;;;10.57;6.68;;;6.50;99.90;;;;;;4764097;30;20059;-84
2023/03/29 07:20:12;;;;;;;12.05;7.70;;;6.60;99.90;;;;;;4762743;30;20507;-84
2023/03/29 07:22:40;;;;;;;14.07;7.75;;;6.70;99.90;;;;;;4749441;30;20384;-84
2023/03/29 07:25:32;;;;;;;12.48;7.40;;;7.20;99.90;;;;;;4765846;30;20127;-85
2023/03/29 07:29:23;;;;;;;8.23;6.93;;;6.70;99.90;;;;;;4752686;30;20143;-85
2023/03/29 07:32:25;;;;;;;7.97;6.20;;;6.70;99.90;;;;;;4712142;30;20056;-85
2023/03/29 07:35:00;;;;;;;10.82;7.20;;;6.80;99.90;;;;;;4706370;30;20505;-84
2023/03/29 07:38:04;;;;;;;8.85;5.95;;;7.00;99.90;;;;;;4737728;30;20052;-84
2023/03/29 07:43:50;;;;;;;6.45;5.68;;;6.90;99.90;;;;;;4751642;30;19930;-85
2023/03/29 07:46:15;;;;;;;10.38;6.25;;;7.50;99.90;;;;;;4766942;30;20073;-85
2023/03/29 07:49:00;;;;;;;8.50;6.45;;;6.90;99.90;;;;;;4768472;30;20126;-84
2023/03/29 07:52:31;;;;;;;;;;;;;;;;;;;;;
2023/03/29 07:55:57;;;;;;;7.05;6.20;;;7.40;99.90;;;;;;4768912;30;20502;-85
2023/03/29 07:58:29;;;;;;;9.48;5.43;;;7.10;99.90;;;;;;4736880;30;20051;-85
2023/03/29 08:01:31;;;;;;;;;;;;;;;;;;;;;
2023/03/29 08:04:09;;;;;;;8.75;5.78;;;7.20;99.90;;;;;;4750875;30;20047;-85
2023/03/29 08:07:27;;;;;;;9.65;5.70;;;7.40;99.90;;;;;;4752647;30;20060;-85
2023/03/29 08:09:53;;;;;;;9.27;5.60;;;7.50;99.90;;;;;;4752921;30;20036;-85
2023/03/29 08:12:57;;;;;;;5.97;4.78;;;7.40;99.90;;;;;;4752119;30;20036;-85
2023/03/29 08:16:19;;;;;;;8.50;5.57;;;8.30;99.90;;;;;;4755153;30;20047;-84
2023/03/29 08:19:37;;;;;;;7.43;5.50;;;7.90;99.90;;;;;;4750079;30;20048;-85
2023/03/29 08:22:14;;;;;;;10.35;5.97;;;6.70;99.90;;;;;;4768815;30;20106;-84
2023/03/29 08:25:21;;;;;;;8.93;5.30;;;7.70;99.90;;;;;;4753576;30;20519;-85
2023/03/29 08:31:35;;;;;;;8.15;5.35;;;7.80;99.90;;;;;;4708959;30;20064;-84
2023/03/29 08:34:01;;;;;;;8.10;5.28;;;8.50;99.90;;;;;;4698724;30;20058;-85
2023/03/29 08:36:27;;;;;;;6.40;5.18;;;7.90;99.90;;;;;;4751636;30;20542;-85
2023/03/29 08:38:54;;;;;;;9.50;6.13;;;8.10;99.90;;;;;;4748865;30;20040;-85
2023/03/29 08:41:31;;;;;;;10.77;4.53;;;8.10;99.90;;;;;;4752019;30;20043;-84
2023/03/29 08:44:13;;;;;;;7.00;4.95;;;8.10;99.90;;;;;;4753056;30;20051;-83
2023/03/29 08:46:42;;;;;;;7.00;5.43;;;8.20;99.90;;;;;;4764935;30;20053;-84
2023/03/29 08:49:08;;;;;;;8.93;5.60;;;9.20;99.90;;;;;;4751412;30;20100;-85
2023/03/29 08:51:46;;;;;;;8.70;5.20;;;8.50;99.90;;;;;;4752187;30;20039;-86
2023/03/29 08:54:24;;;;;;;6.45;5.15;;;8.30;99.90;;;;;;4765454;30;20580;-85
2023/03/29 08:56:51;;;;;;;6.80;4.38;;;7.90;99.90;;;;;;4736230;30;20054;-85
2023/03/29 08:59:29;;;;;;;10.02;4.75;;;8.60;99.90;;;;;;4754307;30;20047;-85
2023/03/29 09:01:58;;;;;;;10.32;5.43;;;9.20;99.90;;;;;;4752180;30;20056;-85
2023/03/29 09:04:33;;;;;;;7.72;5.25;;;9.00;99.90;;;;;;4749436;30;20135;-85
2023/03/29 09:07:01;;;;;;;7.57;6.00;;;8.80;99.90;;;;;;4752480;30;20036;-85
2023/03/29 09:09:31;;;;;;;6.68;4.70;;;9.30;99.90;;;;;;4766713;30;20043;-85
2023/03/29 09:12:11;;;;;;;5.35;3.97;;;10.10;99.90;;;;;;4766716;30;20051;-86
2023/03/29 09:14:50;;;;;;;6.30;5.03;;;9.10;99.90;;;;;;4765393;30;20429;-85
2023/03/29 09:17:23;;;;;;;7.22;5.00;;;9.20;99.90;;;;;;4750260;30;20587;-85
2023/03/29 09:20:22;;;;;;;8.02;4.82;;;9.30;99.90;;;;;;4752636;30;20062;-85
2023/03/29 09:23:03;;;;;;;11.35;5.00;;;9.40;99.90;;;;;;4765575;30;20052;-85
2023/03/29 09:25:53;;;;;;;7.28;5.25;;;9.40;99.90;;;;;;4751620;30;20093;-85
2023/03/29 09:28:46;;;;;;;10.35;5.88;;;9.50;99.90;;;;;;4737053;30;20056;-85
2023/03/29 09:31:21;;;;;;;7.72;5.38;;;9.50;99.90;;;;;;4751852;30;20040;-85
2023/03/29 09:34:13;;;;;;;6.82;4.53;;;10.70;99.90;;;;;;4748207;30;20487;-85
2023/03/29 09:36:52;;;;;;;8.73;6.07;;;10.00;99.90;;;;;;4767203;30;20040;-85
2023/03/29 09:39:21;;;;;;;9.93;5.60;;;9.70;99.90;;;;;;4748490;30;20109;-83
2023/03/29 09:41:52;;;;;;;12.38;5.35;;;9.90;99.90;;;;;;4766766;30;20490;-84
2023/03/29 09:44:27;;;;;;;8.63;5.10;;;9.90;99.90;;;;;;4767197;30;20035;-86
2023/03/29 09:47:06;;;;;;;11.27;6.27;;;10.00;99.90;;;;;;4751977;30;20043;-85
2023/03/29 09:49:59;;;;;;;9.65;5.03;;;9.80;99.90;;;;;;4736076;30;20649;-86
2023/03/29 09:52:25;;;;;;;8.13;5.82;;;9.80;99.90;;;;;;4751143;30;20035;-84
2023/03/29 09:54:51;;;;;;;7.47;5.85;;;9.80;99.90;;;;;;4748650;30;20415;-83
2023/03/29 09:57:18;;;;;;;8.48;5.47;;;10.30;99.90;;;;;;4750409;30;20101;-84
2023/03/29 10:00:19;;;;;;;7.47;5.40;;;10.10;99.90;;;;;;4753791;30;20079;-81
2023/03/29 10:02:58;;;;;;;6.97;5.50;;;10.20;99.90;;;;;;4735849;30;20157;-84
2023/03/29 10:05:28;;;;;;;7.90;6.30;;;10.20;99.90;;;;;;4748513;30;20112;-84
2023/03/29 10:07:58;;;;;;;9.73;6.65;;;10.70;99.90;;;;;;4749426;30;20051;-83
2023/03/29 10:10:29;;;;;;;10.00;5.88;;;9.40;99.90;;;;;;4749047;30;20074;-83
2023/03/29 10:13:09;;;;;;;9.98;6.70;;;11.00;99.90;;;;;;4763716;30;20122;-83
2023/03/29 10:15:35;;;;;;;9.15;6.70;;;9.60;99.90;;;;;;4749945;30;20043;-85
2023/03/29 10:18:09;;;;;;;10.55;6.15;;;10.50;99.90;;;;;;4762168;30;20496;-85
2023/03/29 10:20:39;;;;;;;9.50;6.80;;;10.60;99.90;;;;;;4764798;30;20097;-84
2023/03/29 10:23:07;;;;;;;8.80;6.63;;;11.00;99.90;;;;;;4766044;30;20134;-83
2023/03/29 10:25:39;;;;;;;9.02;7.25;;;10.70;99.90;;;;;;4765068;30;20062;-83
2023/03/29 10:28:31;;;;;;;9.65;7.53;;;10.70;99.90;;;;;;4761638;30;20453;-86
2023/03/29 10:31:00;;;;;;;11.40;7.60;;;10.60;99.90;;;;;;4738737;30;20083;-85
2023/03/29 10:33:35;;;;;;;12.43;7.43;;;10.80;99.90;;;;;;4764618;30;20039;-85
2023/03/29 10:36:06;;;;;;;8.30;6.80;;;10.70;99.90;;;;;;4763215;30;20911;-85
2023/03/29 10:38:35;;;;;;;13.35;9.02;;;10.80;99.90;;;;;;4762406;30;20039;-84
2023/03/29 10:41:14;;;;;;;11.32;7.43;;;10.80;99.90;;;;;;4764179;30;20388;-85
2023/03/29 10:43:49;;;;;;;11.63;7.68;;;11.00;99.90;;;;;;4738151;30;20043;-86
2023/03/29 10:46:41;;;;;;;11.80;7.72;;;11.10;99.90;;;;;;4750814;30;20075;-86
2023/03/29 10:49:18;;;;;;;11.60;8.18;;;11.10;99.90;;;;;;4755783;30;20846;-85
2023/03/29 10:51:46;;;;;;;11.13;7.97;;;10.70;99.90;;;;;;4751148;30;20120;-84
2023/03/29 10:54:22;;;;;;;8.70;7.80;;;11.30;99.90;;;;;;4750256;30;20035;-85
2023/03/29 11:05:02;;;;;;;10.30;7.35;;;11.10;99.90;;;;;;4729250;30;20358;-86
2023/03/29 11:12:31;;;;;;;9.52;7.32;;;11.90;99.90;;;;;;4751761;30;20039;-86
2023/03/29 11:49:28;;;;;;;8.57;5.15;;;13.00;99.90;;;;;;4679103;30;20053;-85
2023/03/29 13:03:21;;;;;;;8.90;5.47;;;13.70;99.90;;;;;;4769270;30;20051;-85
2023/03/29 13:18:06;;;;;;;8.05;6.00;;;13.60;99.90;;;;;;4695432;30;20056;-85
2023/03/29 13:47:44;;;;;;;8.57;6.47;;;13.90;99.90;;;;;;4667329;30;20061;-85
2023/03/29 13:51:35;;;;;;;7.03;6.28;;;14.00;99.90;;;;;;4676252;30;20045;-85
2023/03/29 14:46:48;;;;;;;9.80;6.88;;;13.90;99.90;;;;;;4751181;30;20422;-84
2023/03/29 15:12:42;;;;;;;5.80;4.65;;;14.00;99.90;;;;;;4748209;30;20779;-84
2023/03/29 15:15:12;;;;;;;6.05;4.97;;;14.00;99.90;;;;;;4747273;30;20105;-82
2023/03/29 15:24:47;;;;;;;9.45;5.90;;;13.90;99.90;;;;;;4747611;30;20052;-83
2023/03/29 16:14:44;;;;;;;6.60;5.95;;;12.70;99.90;;;;;;4838969;24;20075;-83
2023/03/29 16:17:31;;;;;;;8.15;6.50;;;12.40;99.90;;;;;;4750061;30;20475;-84
2023/03/29 16:20:09;;;;;;;9.23;7.88;;;12.60;99.90;;;;;;4751301;30;20125;-84
2023/03/29 16:22:35;;;;;;;9.45;7.55;;;12.60;99.90;;;;;;4770449;30;20105;-83
2023/03/29 16:25:04;;;;;;;12.88;9.40;;;12.50;99.90;;;;;;4770407;30;20538;-81
2023/03/29 16:27:31;;;;;;;12.50;10.20;;;12.50;99.90;;;;;;4754331;30;20097;-82
2023/03/29 16:29:57;;;;;;;10.85;9.48;;;12.40;99.90;;;;;;4770358;30;20055;-84
2023/03/29 16:32:23;;;;;;;16.98;11.15;;;12.40;99.90;;;;;;4749845;30;20129;-82
2023/03/29 16:34:49;;;;;;;12.07;10.27;;;12.20;99.90;;;;;;4769690;30;20052;-83
2023/03/29 16:37:20;;;;;;;11.18;9.00;;;12.20;99.90;;;;;;4757761;30;20043;-81
2023/03/29 16:39:46;;;;;;;14.02;10.68;;;12.10;99.90;;;;;;4758698;30;20043;-82
2023/03/29 16:42:12;;;;;;;13.05;11.68;;;12.10;99.90;;;;;;4756161;30;20140;-81
2023/03/29 16:44:47;;;;;;;15.40;12.57;;;12.00;99.90;;;;;;4753626;30;20098;-84
2023/03/29 16:47:15;;;;;;;12.15;10.95;;;11.90;99.90;;;;;;4753369;30;20185;-83
2023/03/29 16:49:56;;;;;;;11.32;9.95;;;12.00;99.90;;;;;;4754976;30;20120;-81
2023/03/29 16:53:12;;;;;;;14.70;11.77;;;11.90;99.90;;;;;;4781397;30;20052;-83
2023/03/29 16:56:52;;;;;;;15.57;11.60;;;11.80;99.90;;;;;;4762926;30;20058;-83
2023/03/29 16:59:59;;;;;;;18.17;11.48;;;11.80;99.90;;;;;;4758232;30;20058;-82
2023/03/29 17:02:28;;;;;;;17.77;12.43;;;11.70;99.90;;;;;;4767745;30;20048;-83
2023/03/29 17:04:59;;;;;;;13.15;11.90;;;11.80;99.90;;;;;;4767344;30;20127;-84
2023/03/29 17:07:26;;;;;;;16.77;12.35;;;11.60;99.90;;;;;;4767224;30;20085;-81
2023/03/29 17:09:55;;;;;;;13.65;12.23;;;11.60;99.90;;;;;;4765335;30;20048;-84
2023/03/29 17:12:22;;;;;;;16.23;12.13;;;11.60;99.90;;;;;;4769377;30;20040;-82
2023/03/29 17:14:54;;;;;;;14.38;12.73;;;11.60;99.90;;;;;;4765105;30;20040;-83
2023/03/29 17:21:18;;;;;;;14.73;13.30;;;11.50;99.90;;;;;;4771663;30;20135;-83
2023/03/29 17:42:51;;;;;;;14.52;13.00;;;11.40;99.90;;;;;;4778256;30;20111;-84
2023/03/29 17:45:17;;;;;;;14.20;12.80;;;11.40;99.90;;;;;;4761697;30;20067;-82
2023/03/29 17:47:44;;;;;;;14.20;12.65;;;11.30;99.90;;;;;;4781766;30;20043;-82
2023/03/29 17:50:11;;;;;;;15.73;13.43;;;11.20;99.90;;;;;;4778844;30;20074;-82
2023/03/29 17:52:38;;;;;;;17.05;14.95;;;11.20;99.90;;;;;;4777917;30;20044;-82
2023/03/29 17:55:14;;;;;;;16.48;14.77;;;11.20;99.90;;;;;;4771735;30;20149;-83
2023/03/29 17:57:41;;;;;;;16.60;14.82;;;11.20;99.90;;;;;;4784069;30;20059;-82
2023/03/29 18:00:12;;;;;;;16.55;14.90;;;11.20;99.90;;;;;;4779362;30;20178;-80
2023/03/29 18:02:39;;;;;;;17.45;14.73;;;11.20;99.90;;;;;;4765639;30;20158;-81
2023/03/29 18:05:07;;;;;;;17.05;15.07;;;11.10;99.90;;;;;;4781359;30;20083;-80
2023/03/29 18:07:33;;;;;;;16.63;14.93;;;11.10;99.90;;;;;;4761387;30;20052;-80
2023/03/29 18:09:58;;;;;;;16.98;15.25;;;11.10;99.90;;;;;;4762255;30;20058;-81
2023/03/29 18:12:25;;;;;;;17.02;15.32;;;11.10;99.90;;;;;;4773172;30;20051;-81
2023/03/29 18:14:51;;;;;;;17.60;15.77;;;11.10;99.90;;;;;;4763151;30;20067;-79
2023/03/29 18:17:16;;;;;;;18.52;16.55;;;11.00;99.90;;;;;;4749115;30;20091;-79
2023/03/29 18:19:42;;;;;;;17.42;15.75;;;11.10;99.90;;;;;;4761295;30;20039;-78
2023/03/29 18:22:07;;;;;;;19.52;15.95;;;11.10;99.90;;;;;;4762867;30;20154;-80
2023/03/29 18:24:33;;;;;;;16.25;14.30;;;11.10;99.90;;;;;;4763127;30;20063;-80
2023/03/29 18:26:59;;;;;;;18.08;15.90;;;11.00;99.90;;;;;;4762598;30;20071;-82
2023/03/29 18:29:24;;;;;;;17.02;15.35;;;11.10;99.90;;;;;;4780603;30;20040;-81
2023/03/29 18:31:50;;;;;;;16.10;14.43;;;11.00;99.90;;;;;;4759221;30;20222;-82
2023/03/29 18:34:16;;;;;;;14.80;13.38;;;11.60;99.90;;;;;;4769109;30;20083;-82
2023/03/29 18:37:06;;;;;;;18.17;15.57;;;11.00;99.90;;;;;;4752631;30;20094;-84
2023/03/29 18:40:04;;;;;;;18.33;14.68;;;11.10;99.90;;;;;;4763900;30;20062;-84